sensor_id;sensor_type;location;lat;lon;timestamp;P1;durP1;ratioP1;P2;durP2;ratioP2
55025;SDS011;40925;45.666;18.994;2023-06-10T00:00:04;6.13;;;3.22;;
55025;SDS011;40925;45.666;18.994;2023-06-10T00:02:31;6.97;;;3.15;;
55025;SDS011;40925;45.666;18.994;2023-06-10T00:04:57;6.40;;;3.33;;
55025;SDS011;40925;45.666;18.994;2023-06-10T00:07:22;5.88;;;3.45;;
55025;SDS011;40925;45.666;18.994;2023-06-10T00:09:48;10.68;;;4.78;;
55025;SDS011;40925;45.666;18.994;2023-06-10T00:12:15;11.10;;;6.05;;
55025;SDS011;40925;45.666;18.994;2023-06-10T00:14:42;11.35;;;6.57;;
55025;SDS011;40925;45.666;18.994;2023-06-10T00:17:07;13.50;;;7.70;;
55025;SDS011;40925;45.666;18.994;2023-06-10T00:19:36;11.73;;;7.90;;
55025;SDS011;40925;45.666;18.994;2023-06-10T00:22:06;9.70;;;7.50;;
55025;SDS011;40925;45.666;18.994;2023-06-10T00:24:32;12.13;;;6.70;;
55025;SDS011;40925;45.666;18.994;2023-06-10T00:26:58;9.85;;;5.68;;
55025;SDS011;40925;45.666;18.994;2023-06-10T00:29:24;8.80;;;4.47;;
55025;SDS011;40925;45.666;18.994;2023-06-10T00:31:50;6.65;;;4.38;;
55025;SDS011;40925;45.666;18.994;2023-06-10T00:34:16;5.75;;;4.07;;
55025;SDS011;40925;45.666;18.994;2023-06-10T00:36:42;6.57;;;3.67;;
55025;SDS011;40925;45.666;18.994;2023-06-10T00:39:08;4.82;;;3.05;;
55025;SDS011;40925;45.666;18.994;2023-06-10T00:41:34;7.25;;;3.45;;
55025;SDS011;40925;45.666;18.994;2023-06-10T00:43:59;6.10;;;3.00;;
55025;SDS011;40925;45.666;18.994;2023-06-10T00:46:25;6.13;;;3.55;;
55025;SDS011;40925;45.666;18.994;2023-06-10T00:48:52;5.47;;;3.13;;
55025;SDS011;40925;45.666;18.994;2023-06-10T00:51:18;4.60;;;3.40;;
55025;SDS011;40925;45.666;18.994;2023-06-10T00:53:44;4.40;;;3.40;;
55025;SDS011;40925;45.666;18.994;2023-06-10T00:56:10;6.15;;;3.67;;
55025;SDS011;40925;45.666;18.994;2023-06-10T00:58:36;5.82;;;3.50;;
55025;SDS011;40925;45.666;18.994;2023-06-10T01:01:02;4.80;;;3.50;;
55025;SDS011;40925;45.666;18.994;2023-06-10T01:03:29;5.55;;;4.00;;
55025;SDS011;40925;45.666;18.994;2023-06-10T01:06:31;6.53;;;3.70;;
55025;SDS011;40925;45.666;18.994;2023-06-10T01:11:36;5.80;;;3.60;;
55025;SDS011;40925;45.666;18.994;2023-06-10T01:14:25;6.85;;;3.80;;
55025;SDS011;40925;45.666;18.994;2023-06-10T01:16:52;6.30;;;3.33;;
55025;SDS011;40925;45.666;18.994;2023-06-10T01:19:18;5.60;;;3.53;;
55025;SDS011;40925;45.666;18.994;2023-06-10T01:21:43;6.35;;;3.90;;
55025;SDS011;40925;45.666;18.994;2023-06-10T01:24:13;5.88;;;4.13;;
55025;SDS011;40925;45.666;18.994;2023-06-10T01:26:43;6.05;;;3.97;;
55025;SDS011;40925;45.666;18.994;2023-06-10T01:29:19;6.85;;;4.10;;
55025;SDS011;40925;45.666;18.994;2023-06-10T01:31:51;11.73;;;5.03;;
55025;SDS011;40925;45.666;18.994;2023-06-10T01:34:21;6.75;;;4.40;;
55025;SDS011;40925;45.666;18.994;2023-06-10T01:36:49;5.20;;;4.32;;
55025;SDS011;40925;45.666;18.994;2023-06-10T01:39:16;8.38;;;4.82;;
55025;SDS011;40925;45.666;18.994;2023-06-10T01:41:43;7.22;;;4.65;;
55025;SDS011;40925;45.666;18.994;2023-06-10T01:44:10;8.25;;;4.57;;
55025;SDS011;40925;45.666;18.994;2023-06-10T01:46:36;8.98;;;5.15;;
55025;SDS011;40925;45.666;18.994;2023-06-10T01:49:02;8.23;;;5.63;;
55025;SDS011;40925;45.666;18.994;2023-06-10T01:51:28;9.30;;;5.65;;
55025;SDS011;40925;45.666;18.994;2023-06-10T01:53:56;8.80;;;5.93;;
55025;SDS011;40925;45.666;18.994;2023-06-10T01:56:22;10.88;;;5.82;;
55025;SDS011;40925;45.666;18.994;2023-06-10T01:58:48;8.13;;;5.05;;
55025;SDS011;40925;45.666;18.994;2023-06-10T02:01:14;8.98;;;5.93;;
55025;SDS011;40925;45.666;18.994;2023-06-10T02:03:40;11.75;;;7.15;;
55025;SDS011;40925;45.666;18.994;2023-06-10T02:06:06;10.88;;;6.72;;
55025;SDS011;40925;45.666;18.994;2023-06-10T02:08:32;12.48;;;6.15;;
55025;SDS011;40925;45.666;18.994;2023-06-10T02:10:58;10.50;;;5.82;;
55025;SDS011;40925;45.666;18.994;2023-06-10T02:13:23;10.20;;;5.60;;
55025;SDS011;40925;45.666;18.994;2023-06-10T02:15:49;14.02;;;5.93;;
55025;SDS011;40925;45.666;18.994;2023-06-10T02:18:15;11.95;;;5.65;;
55025;SDS011;40925;45.666;18.994;2023-06-10T02:20:40;10.07;;;5.55;;
55025;SDS011;40925;45.666;18.994;2023-06-10T02:23:06;10.30;;;6.20;;
55025;SDS011;40925;45.666;18.994;2023-06-10T02:25:32;9.73;;;6.35;;
55025;SDS011;40925;45.666;18.994;2023-06-10T02:27:57;11.70;;;6.57;;
55025;SDS011;40925;45.666;18.994;2023-06-10T02:30:23;10.43;;;6.32;;
55025;SDS011;40925;45.666;18.994;2023-06-10T02:32:49;10.75;;;6.97;;
55025;SDS011;40925;45.666;18.994;2023-06-10T02:35:15;10.25;;;6.18;;
55025;SDS011;40925;45.666;18.994;2023-06-10T02:37:42;8.32;;;6.00;;
55025;SDS011;40925;45.666;18.994;2023-06-10T02:40:08;10.68;;;6.40;;
55025;SDS011;40925;45.666;18.994;2023-06-10T02:42:35;9.68;;;6.18;;
55025;SDS011;40925;45.666;18.994;2023-06-10T02:45:01;8.27;;;6.03;;
55025;SDS011;40925;45.666;18.994;2023-06-10T02:47:27;10.95;;;6.10;;
55025;SDS011;40925;45.666;18.994;2023-06-10T02:49:53;12.07;;;6.70;;
55025;SDS011;40925;45.666;18.994;2023-06-10T02:52:19;8.95;;;6.57;;
55025;SDS011;40925;45.666;18.994;2023-06-10T02:54:45;9.48;;;6.70;;
55025;SDS011;40925;45.666;18.994;2023-06-10T02:57:11;12.05;;;6.85;;
55025;SDS011;40925;45.666;18.994;2023-06-10T02:59:37;10.50;;;6.50;;
55025;SDS011;40925;45.666;18.994;2023-06-10T03:02:03;12.43;;;7.57;;
55025;SDS011;40925;45.666;18.994;2023-06-10T03:04:29;10.45;;;7.30;;
55025;SDS011;40925;45.666;18.994;2023-06-10T03:06:55;9.27;;;7.57;;
55025;SDS011;40925;45.666;18.994;2023-06-10T03:09:21;10.88;;;7.40;;
55025;SDS011;40925;45.666;18.994;2023-06-10T03:11:47;12.73;;;7.10;;
55025;SDS011;40925;45.666;18.994;2023-06-10T03:14:13;11.23;;;6.97;;
55025;SDS011;40925;45.666;18.994;2023-06-10T03:16:39;9.75;;;6.78;;
55025;SDS011;40925;45.666;18.994;2023-06-10T03:19:05;12.20;;;6.45;;
55025;SDS011;40925;45.666;18.994;2023-06-10T03:21:33;10.88;;;6.50;;
55025;SDS011;40925;45.666;18.994;2023-06-10T03:24:02;11.27;;;7.03;;
55025;SDS011;40925;45.666;18.994;2023-06-10T03:26:28;14.40;;;8.77;;
55025;SDS011;40925;45.666;18.994;2023-06-10T03:28:54;10.30;;;7.65;;
55025;SDS011;40925;45.666;18.994;2023-06-10T03:31:19;9.85;;;7.13;;
55025;SDS011;40925;45.666;18.994;2023-06-10T03:33:45;9.98;;;7.05;;
55025;SDS011;40925;45.666;18.994;2023-06-10T03:36:11;10.98;;;7.72;;
55025;SDS011;40925;45.666;18.994;2023-06-10T03:38:37;11.90;;;6.93;;
55025;SDS011;40925;45.666;18.994;2023-06-10T03:41:02;12.15;;;7.70;;
55025;SDS011;40925;45.666;18.994;2023-06-10T03:43:28;9.23;;;6.70;;
55025;SDS011;40925;45.666;18.994;2023-06-10T03:45:56;10.80;;;7.20;;
55025;SDS011;40925;45.666;18.994;2023-06-10T03:48:21;11.98;;;8.13;;
55025;SDS011;40925;45.666;18.994;2023-06-10T03:50:47;9.98;;;7.60;;
55025;SDS011;40925;45.666;18.994;2023-06-10T03:53:15;10.93;;;6.90;;
55025;SDS011;40925;45.666;18.994;2023-06-10T03:55:42;11.77;;;7.85;;
55025;SDS011;40925;45.666;18.994;2023-06-10T03:58:07;13.50;;;7.90;;
55025;SDS011;40925;45.666;18.994;2023-06-10T04:00:33;11.30;;;7.65;;
55025;SDS011;40925;45.666;18.994;2023-06-10T04:03:06;11.88;;;7.80;;
55025;SDS011;40925;45.666;18.994;2023-06-10T04:05:39;11.70;;;7.65;;
55025;SDS011;40925;45.666;18.994;2023-06-10T04:08:06;10.68;;;6.88;;
55025;SDS011;40925;45.666;18.994;2023-06-10T04:10:32;14.00;;;7.40;;
55025;SDS011;40925;45.666;18.994;2023-06-10T04:12:58;10.90;;;7.07;;
55025;SDS011;40925;45.666;18.994;2023-06-10T04:15:24;12.35;;;6.75;;
55025;SDS011;40925;45.666;18.994;2023-06-10T04:17:50;9.00;;;6.13;;
55025;SDS011;40925;45.666;18.994;2023-06-10T04:20:17;9.15;;;6.03;;
55025;SDS011;40925;45.666;18.994;2023-06-10T04:22:43;7.22;;;5.13;;
55025;SDS011;40925;45.666;18.994;2023-06-10T04:25:09;7.35;;;5.47;;
55025;SDS011;40925;45.666;18.994;2023-06-10T04:27:35;8.80;;;5.25;;
55025;SDS011;40925;45.666;18.994;2023-06-10T04:30:01;7.90;;;4.80;;
55025;SDS011;40925;45.666;18.994;2023-06-10T04:32:28;8.18;;;4.47;;
55025;SDS011;40925;45.666;18.994;2023-06-10T04:34:54;8.75;;;4.70;;
55025;SDS011;40925;45.666;18.994;2023-06-10T04:37:20;6.63;;;4.18;;
55025;SDS011;40925;45.666;18.994;2023-06-10T04:39:45;5.55;;;4.20;;
55025;SDS011;40925;45.666;18.994;2023-06-10T04:42:11;6.57;;;3.63;;
55025;SDS011;40925;45.666;18.994;2023-06-10T04:44:37;9.27;;;5.78;;
55025;SDS011;40925;45.666;18.994;2023-06-10T04:47:04;12.55;;;8.07;;
55025;SDS011;40925;45.666;18.994;2023-06-10T04:49:30;15.02;;;8.98;;
55025;SDS011;40925;45.666;18.994;2023-06-10T04:51:56;12.20;;;7.50;;
55025;SDS011;40925;45.666;18.994;2023-06-10T04:54:21;9.98;;;5.22;;
55025;SDS011;40925;45.666;18.994;2023-06-10T04:56:47;5.35;;;4.13;;
55025;SDS011;40925;45.666;18.994;2023-06-10T04:59:13;7.88;;;4.30;;
55025;SDS011;40925;45.666;18.994;2023-06-10T05:01:39;7.60;;;3.88;;
55025;SDS011;40925;45.666;18.994;2023-06-10T05:04:05;6.60;;;3.85;;
55025;SDS011;40925;45.666;18.994;2023-06-10T05:06:30;6.47;;;4.05;;
55025;SDS011;40925;45.666;18.994;2023-06-10T05:08:56;6.45;;;3.80;;
55025;SDS011;40925;45.666;18.994;2023-06-10T05:11:22;6.32;;;3.83;;
55025;SDS011;40925;45.666;18.994;2023-06-10T05:13:48;7.32;;;3.67;;
55025;SDS011;40925;45.666;18.994;2023-06-10T05:16:14;8.88;;;4.18;;
55025;SDS011;40925;45.666;18.994;2023-06-10T05:18:40;5.07;;;3.72;;
55025;SDS011;40925;45.666;18.994;2023-06-10T05:21:06;6.85;;;3.42;;
55025;SDS011;40925;45.666;18.994;2023-06-10T05:23:32;5.45;;;3.30;;
55025;SDS011;40925;45.666;18.994;2023-06-10T05:25:58;6.85;;;3.10;;
55025;SDS011;40925;45.666;18.994;2023-06-10T05:28:24;5.03;;;2.95;;
55025;SDS011;40925;45.666;18.994;2023-06-10T05:30:51;3.80;;;2.90;;
55025;SDS011;40925;45.666;18.994;2023-06-10T05:33:16;6.40;;;3.03;;
55025;SDS011;40925;45.666;18.994;2023-06-10T05:35:42;4.90;;;3.08;;
55025;SDS011;40925;45.666;18.994;2023-06-10T05:38:08;4.40;;;3.58;;
55025;SDS011;40925;45.666;18.994;2023-06-10T05:40:33;5.22;;;3.25;;
55025;SDS011;40925;45.666;18.994;2023-06-10T05:42:59;5.10;;;3.30;;
55025;SDS011;40925;45.666;18.994;2023-06-10T05:45:25;6.20;;;3.50;;
55025;SDS011;40925;45.666;18.994;2023-06-10T05:47:51;4.00;;;3.25;;
55025;SDS011;40925;45.666;18.994;2023-06-10T05:50:17;5.35;;;3.17;;
55025;SDS011;40925;45.666;18.994;2023-06-10T05:52:43;4.90;;;3.40;;
55025;SDS011;40925;45.666;18.994;2023-06-10T05:55:09;6.03;;;3.40;;
55025;SDS011;40925;45.666;18.994;2023-06-10T05:57:35;4.88;;;3.50;;
55025;SDS011;40925;45.666;18.994;2023-06-10T06:00:00;5.43;;;3.47;;
55025;SDS011;40925;45.666;18.994;2023-06-10T06:02:26;5.72;;;3.40;;
55025;SDS011;40925;45.666;18.994;2023-06-10T06:04:52;7.13;;;3.60;;
55025;SDS011;40925;45.666;18.994;2023-06-10T06:07:17;4.00;;;3.60;;
55025;SDS011;40925;45.666;18.994;2023-06-10T06:09:45;5.07;;;3.70;;
55025;SDS011;40925;45.666;18.994;2023-06-10T06:12:12;5.95;;;3.60;;
55025;SDS011;40925;45.666;18.994;2023-06-10T06:14:38;5.20;;;3.90;;
55025;SDS011;40925;45.666;18.994;2023-06-10T06:17:06;5.68;;;3.85;;
55025;SDS011;40925;45.666;18.994;2023-06-10T06:19:32;5.47;;;4.03;;
55025;SDS011;40925;45.666;18.994;2023-06-10T06:21:58;5.53;;;3.90;;
55025;SDS011;40925;45.666;18.994;2023-06-10T06:24:24;5.68;;;3.95;;
55025;SDS011;40925;45.666;18.994;2023-06-10T06:26:50;6.47;;;4.50;;
55025;SDS011;40925;45.666;18.994;2023-06-10T06:29:15;6.85;;;4.10;;
55025;SDS011;40925;45.666;18.994;2023-06-10T06:31:41;7.68;;;4.43;;
55025;SDS011;40925;45.666;18.994;2023-06-10T06:34:07;6.55;;;4.50;;
55025;SDS011;40925;45.666;18.994;2023-06-10T06:36:32;7.40;;;4.15;;
55025;SDS011;40925;45.666;18.994;2023-06-10T06:38:58;5.93;;;4.57;;
55025;SDS011;40925;45.666;18.994;2023-06-10T06:41:25;8.15;;;5.57;;
55025;SDS011;40925;45.666;18.994;2023-06-10T06:43:52;6.03;;;4.80;;
55025;SDS011;40925;45.666;18.994;2023-06-10T06:46:18;6.35;;;4.68;;
55025;SDS011;40925;45.666;18.994;2023-06-10T06:48:44;10.82;;;4.60;;
55025;SDS011;40925;45.666;18.994;2023-06-10T06:51:10;6.88;;;5.18;;
55025;SDS011;40925;45.666;18.994;2023-06-10T06:53:35;6.80;;;4.43;;
55025;SDS011;40925;45.666;18.994;2023-06-10T06:56:01;7.07;;;5.80;;
55025;SDS011;40925;45.666;18.994;2023-06-10T06:58:27;6.82;;;4.80;;
55025;SDS011;40925;45.666;18.994;2023-06-10T07:00:53;6.32;;;4.80;;
55025;SDS011;40925;45.666;18.994;2023-06-10T07:03:19;6.70;;;4.40;;
55025;SDS011;40925;45.666;18.994;2023-06-10T07:05:44;5.07;;;4.40;;
55025;SDS011;40925;45.666;18.994;2023-06-10T07:08:10;6.00;;;4.55;;
55025;SDS011;40925;45.666;18.994;2023-06-10T07:10:37;6.95;;;4.78;;
55025;SDS011;40925;45.666;18.994;2023-06-10T07:13:02;7.65;;;4.65;;
55025;SDS011;40925;45.666;18.994;2023-06-10T07:15:28;5.22;;;4.45;;
55025;SDS011;40925;45.666;18.994;2023-06-10T07:17:54;7.85;;;4.50;;
55025;SDS011;40925;45.666;18.994;2023-06-10T07:20:20;5.95;;;4.30;;
55025;SDS011;40925;45.666;18.994;2023-06-10T07:22:46;7.90;;;4.60;;
55025;SDS011;40925;45.666;18.994;2023-06-10T07:25:12;7.40;;;4.68;;
55025;SDS011;40925;45.666;18.994;2023-06-10T07:27:37;6.47;;;4.88;;
55025;SDS011;40925;45.666;18.994;2023-06-10T07:30:04;7.60;;;4.90;;
55025;SDS011;40925;45.666;18.994;2023-06-10T07:32:33;6.40;;;4.35;;
55025;SDS011;40925;45.666;18.994;2023-06-10T07:34:59;6.95;;;4.90;;
55025;SDS011;40925;45.666;18.994;2023-06-10T07:37:24;6.63;;;4.40;;
55025;SDS011;40925;45.666;18.994;2023-06-10T07:39:50;6.25;;;4.80;;
55025;SDS011;40925;45.666;18.994;2023-06-10T07:42:16;6.30;;;4.30;;
55025;SDS011;40925;45.666;18.994;2023-06-10T07:44:42;6.70;;;5.30;;
55025;SDS011;40925;45.666;18.994;2023-06-10T07:47:07;7.32;;;4.88;;
55025;SDS011;40925;45.666;18.994;2023-06-10T07:49:33;6.90;;;4.50;;
55025;SDS011;40925;45.666;18.994;2023-06-10T07:51:59;5.53;;;4.63;;
55025;SDS011;40925;45.666;18.994;2023-06-10T07:54:24;5.63;;;4.40;;
55025;SDS011;40925;45.666;18.994;2023-06-10T07:56:50;6.18;;;4.70;;
55025;SDS011;40925;45.666;18.994;2023-06-10T07:59:18;7.72;;;4.65;;
55025;SDS011;40925;45.666;18.994;2023-06-10T08:01:44;6.65;;;4.57;;
55025;SDS011;40925;45.666;18.994;2023-06-10T08:04:09;11.02;;;4.65;;
55025;SDS011;40925;45.666;18.994;2023-06-10T08:06:35;4.88;;;4.28;;
55025;SDS011;40925;45.666;18.994;2023-06-10T08:09:02;5.80;;;4.40;;
55025;SDS011;40925;45.666;18.994;2023-06-10T08:11:28;5.13;;;4.10;;
55025;SDS011;40925;45.666;18.994;2023-06-10T08:13:54;5.95;;;4.63;;
55025;SDS011;40925;45.666;18.994;2023-06-10T08:16:20;4.47;;;4.00;;
55025;SDS011;40925;45.666;18.994;2023-06-10T08:18:46;8.18;;;4.00;;
55025;SDS011;40925;45.666;18.994;2023-06-10T08:21:12;5.93;;;5.10;;
55025;SDS011;40925;45.666;18.994;2023-06-10T08:23:37;6.40;;;4.60;;
55025;SDS011;40925;45.666;18.994;2023-06-10T08:26:04;7.95;;;4.60;;
55025;SDS011;40925;45.666;18.994;2023-06-10T08:28:29;8.02;;;4.15;;
55025;SDS011;40925;45.666;18.994;2023-06-10T08:30:55;5.13;;;4.15;;
55025;SDS011;40925;45.666;18.994;2023-06-10T08:33:21;4.60;;;4.10;;
55025;SDS011;40925;45.666;18.994;2023-06-10T08:35:46;5.45;;;3.95;;
55025;SDS011;40925;45.666;18.994;2023-06-10T08:38:12;5.38;;;4.30;;
55025;SDS011;40925;45.666;18.994;2023-06-10T08:40:38;5.45;;;4.45;;
55025;SDS011;40925;45.666;18.994;2023-06-10T08:43:05;5.65;;;4.00;;
55025;SDS011;40925;45.666;18.994;2023-06-10T08:45:36;4.95;;;4.45;;
55025;SDS011;40925;45.666;18.994;2023-06-10T08:48:05;4.65;;;4.15;;
55025;SDS011;40925;45.666;18.994;2023-06-10T08:50:33;5.97;;;5.47;;
55025;SDS011;40925;45.666;18.994;2023-06-10T08:53:01;6.38;;;5.20;;
55025;SDS011;40925;45.666;18.994;2023-06-10T08:55:31;6.13;;;5.38;;
55025;SDS011;40925;45.666;18.994;2023-06-10T08:58:01;6.72;;;6.10;;
55025;SDS011;40925;45.666;18.994;2023-06-10T09:00:30;5.45;;;4.95;;
55025;SDS011;40925;45.666;18.994;2023-06-10T09:02:57;7.43;;;6.72;;
55025;SDS011;40925;45.666;18.994;2023-06-10T09:05:23;7.40;;;6.00;;
55025;SDS011;40925;45.666;18.994;2023-06-10T09:07:49;32.47;;;30.20;;
55025;SDS011;40925;45.666;18.994;2023-06-10T09:10:17;14.75;;;13.60;;
55025;SDS011;40925;45.666;18.994;2023-06-10T09:12:43;6.53;;;5.93;;
55025;SDS011;40925;45.666;18.994;2023-06-10T09:15:09;8.93;;;8.30;;
55025;SDS011;40925;45.666;18.994;2023-06-10T09:17:37;10.68;;;9.88;;
55025;SDS011;40925;45.666;18.994;2023-06-10T09:20:05;12.98;;;12.00;;
55025;SDS011;40925;45.666;18.994;2023-06-10T09:22:32;7.15;;;6.50;;
55025;SDS011;40925;45.666;18.994;2023-06-10T09:25:02;23.00;;;21.50;;
55025;SDS011;40925;45.666;18.994;2023-06-10T09:27:30;6.80;;;6.20;;
55025;SDS011;40925;45.666;18.994;2023-06-10T09:29:59;6.50;;;5.60;;
55025;SDS011;40925;45.666;18.994;2023-06-10T09:32:25;27.20;;;25.38;;
55025;SDS011;40925;45.666;18.994;2023-06-10T09:34:53;10.10;;;9.40;;
55025;SDS011;40925;45.666;18.994;2023-06-10T09:37:22;9.77;;;9.07;;
55025;SDS011;40925;45.666;18.994;2023-06-10T09:40:04;9.63;;;8.90;;
55025;SDS011;40925;45.666;18.994;2023-06-10T09:42:34;9.13;;;8.43;;
55025;SDS011;40925;45.666;18.994;2023-06-10T09:45:01;9.82;;;9.10;;
55025;SDS011;40925;45.666;18.994;2023-06-10T09:47:27;11.30;;;10.40;;
55025;SDS011;40925;45.666;18.994;2023-06-10T09:49:54;12.98;;;11.77;;
55025;SDS011;40925;45.666;18.994;2023-06-10T09:52:23;12.77;;;11.77;;
55025;SDS011;40925;45.666;18.994;2023-06-10T09:54:50;13.93;;;12.85;;
55025;SDS011;40925;45.666;18.994;2023-06-10T09:57:17;52.72;;;49.20;;
55025;SDS011;40925;45.666;18.994;2023-06-10T09:59:44;30.83;;;28.92;;
55025;SDS011;40925;45.666;18.994;2023-06-10T10:02:18;26.02;;;24.08;;
55025;SDS011;40925;45.666;18.994;2023-06-10T10:04:44;16.10;;;15.00;;
55025;SDS011;40925;45.666;18.994;2023-06-10T10:07:10;13.48;;;12.23;;
55025;SDS011;40925;45.666;18.994;2023-06-10T10:09:40;18.42;;;17.08;;
55025;SDS011;40925;45.666;18.994;2023-06-10T10:14:33;14.75;;;13.80;;
55025;SDS011;40925;45.666;18.994;2023-06-10T10:17:00;13.00;;;11.98;;
55025;SDS011;40925;45.666;18.994;2023-06-10T10:19:30;11.40;;;10.60;;
55025;SDS011;40925;45.666;18.994;2023-06-10T10:22:04;11.70;;;10.80;;
55025;SDS011;40925;45.666;18.994;2023-06-10T10:24:41;13.00;;;12.10;;
55025;SDS011;40925;45.666;18.994;2023-06-10T10:27:11;25.35;;;23.63;;
55025;SDS011;40925;45.666;18.994;2023-06-10T10:29:39;37.65;;;35.40;;
55025;SDS011;40925;45.666;18.994;2023-06-10T10:32:06;35.05;;;32.88;;
55025;SDS011;40925;45.666;18.994;2023-06-10T10:34:35;27.25;;;25.52;;
55025;SDS011;40925;45.666;18.994;2023-06-10T10:37:03;38.72;;;36.47;;
55025;SDS011;40925;45.666;18.994;2023-06-10T10:39:29;47.00;;;44.17;;
55025;SDS011;40925;45.666;18.994;2023-06-10T10:41:56;78.20;;;73.75;;
55025;SDS011;40925;45.666;18.994;2023-06-10T10:44:22;69.30;;;65.22;;
55025;SDS011;40925;45.666;18.994;2023-06-10T10:46:49;94.97;;;89.40;;
55025;SDS011;40925;45.666;18.994;2023-06-10T10:49:16;106.45;;;100.22;;
55025;SDS011;40925;45.666;18.994;2023-06-10T10:51:59;185.68;;;173.75;;
55025;SDS011;40925;45.666;18.994;2023-06-10T10:54:32;197.65;;;184.57;;
55025;SDS011;40925;45.666;18.994;2023-06-10T10:59:56;173.45;;;162.30;;
55025;SDS011;40925;45.666;18.994;2023-06-10T11:05:03;260.30;;;243.50;;
55025;SDS011;40925;45.666;18.994;2023-06-10T11:07:30;282.23;;;263.20;;
55025;SDS011;40925;45.666;18.994;2023-06-10T11:09:58;194.38;;;181.77;;
55025;SDS011;40925;45.666;18.994;2023-06-10T11:12:40;208.43;;;195.38;;
55025;SDS011;40925;45.666;18.994;2023-06-10T11:15:07;277.98;;;259.75;;
55025;SDS011;40925;45.666;18.994;2023-06-10T11:17:33;269.20;;;251.13;;
55025;SDS011;40925;45.666;18.994;2023-06-10T11:19:59;257.50;;;240.93;;
55025;SDS011;40925;45.666;18.994;2023-06-10T11:22:25;295.58;;;274.88;;
55025;SDS011;40925;45.666;18.994;2023-06-10T11:24:51;68.20;;;63.58;;
55025;SDS011;40925;45.666;18.994;2023-06-10T11:27:21;278.52;;;259.85;;
55025;SDS011;40925;45.666;18.994;2023-06-10T11:32:29;301.65;;;280.05;;
55025;SDS011;40925;45.666;18.994;2023-06-10T11:34:59;281.80;;;262.25;;
55025;SDS011;40925;45.666;18.994;2023-06-10T11:37:25;330.05;;;304.30;;
55025;SDS011;40925;45.666;18.994;2023-06-10T11:39:53;316.25;;;292.95;;
55025;SDS011;40925;45.666;18.994;2023-06-10T11:42:19;318.15;;;294.42;;
55025;SDS011;40925;45.666;18.994;2023-06-10T11:44:49;307.67;;;285.15;;
55025;SDS011;40925;45.666;18.994;2023-06-10T11:47:16;323.13;;;299.00;;
55025;SDS011;40925;45.666;18.994;2023-06-10T11:49:42;314.50;;;291.83;;
55025;SDS011;40925;45.666;18.994;2023-06-10T11:52:09;317.38;;;293.38;;
55025;SDS011;40925;45.666;18.994;2023-06-10T11:54:36;298.75;;;276.67;;
55025;SDS011;40925;45.666;18.994;2023-06-10T11:57:02;315.65;;;293.13;;
55025;SDS011;40925;45.666;18.994;2023-06-10T11:59:29;273.95;;;256.00;;
55025;SDS011;40925;45.666;18.994;2023-06-10T12:01:55;296.80;;;275.75;;
55025;SDS011;40925;45.666;18.994;2023-06-10T12:04:22;279.50;;;259.80;;
55025;SDS011;40925;45.666;18.994;2023-06-10T12:06:49;314.27;;;290.40;;
55025;SDS011;40925;45.666;18.994;2023-06-10T12:09:19;304.63;;;281.65;;
55025;SDS011;40925;45.666;18.994;2023-06-10T12:11:48;304.63;;;282.73;;
55025;SDS011;40925;45.666;18.994;2023-06-10T12:17:35;303.30;;;281.33;;
55025;SDS011;40925;45.666;18.994;2023-06-10T12:20:05;311.45;;;289.30;;
55025;SDS011;40925;45.666;18.994;2023-06-10T12:25:05;289.83;;;268.92;;
55025;SDS011;40925;45.666;18.994;2023-06-10T12:27:32;288.30;;;269.48;;
55025;SDS011;40925;45.666;18.994;2023-06-10T12:29:59;296.58;;;275.13;;
55025;SDS011;40925;45.666;18.994;2023-06-10T12:32:35;313.25;;;291.63;;
55025;SDS011;40925;45.666;18.994;2023-06-10T12:35:08;303.40;;;282.88;;
55025;SDS011;40925;45.666;18.994;2023-06-10T12:37:35;145.50;;;134.85;;
55025;SDS011;40925;45.666;18.994;2023-06-10T12:40:02;292.52;;;271.85;;
55025;SDS011;40925;45.666;18.994;2023-06-10T12:42:32;283.23;;;264.00;;
55025;SDS011;40925;45.666;18.994;2023-06-10T12:45:00;270.73;;;251.95;;
55025;SDS011;40925;45.666;18.994;2023-06-10T12:47:32;285.25;;;265.30;;
55025;SDS011;40925;45.666;18.994;2023-06-10T12:50:06;281.02;;;260.88;;
55025;SDS011;40925;45.666;18.994;2023-06-10T12:52:32;48.13;;;45.15;;
55025;SDS011;40925;45.666;18.994;2023-06-10T12:54:58;189.75;;;176.35;;
55025;SDS011;40925;45.666;18.994;2023-06-10T12:57:25;89.22;;;83.18;;
55025;SDS011;40925;45.666;18.994;2023-06-10T12:59:51;128.38;;;119.57;;
55025;SDS011;40925;45.666;18.994;2023-06-10T13:02:22;90.60;;;84.50;;
55025;SDS011;40925;45.666;18.994;2023-06-10T13:04:52;108.32;;;101.10;;
55025;SDS011;40925;45.666;18.994;2023-06-10T13:07:17;104.15;;;97.00;;
55025;SDS011;40925;45.666;18.994;2023-06-10T13:09:43;186.25;;;173.13;;
55025;SDS011;40925;45.666;18.994;2023-06-10T13:12:09;99.57;;;93.05;;
55025;SDS011;40925;45.666;18.994;2023-06-10T13:14:36;63.42;;;59.47;;
55025;SDS011;40925;45.666;18.994;2023-06-10T13:17:03;87.10;;;81.30;;
55025;SDS011;40925;45.666;18.994;2023-06-10T13:19:31;136.65;;;127.63;;
55025;SDS011;40925;45.666;18.994;2023-06-10T13:21:57;163.57;;;152.07;;
55025;SDS011;40925;45.666;18.994;2023-06-10T13:24:23;67.30;;;62.88;;
55025;SDS011;40925;45.666;18.994;2023-06-10T13:26:49;198.25;;;184.25;;
55025;SDS011;40925;45.666;18.994;2023-06-10T13:29:15;51.08;;;47.60;;
55025;SDS011;40925;45.666;18.994;2023-06-10T13:31:41;112.65;;;105.03;;
55025;SDS011;40925;45.666;18.994;2023-06-10T13:34:07;82.68;;;77.25;;
55025;SDS011;40925;45.666;18.994;2023-06-10T13:36:33;144.65;;;134.38;;
55025;SDS011;40925;45.666;18.994;2023-06-10T13:38:58;129.75;;;121.00;;
55025;SDS011;40925;45.666;18.994;2023-06-10T13:41:24;62.40;;;58.45;;
55025;SDS011;40925;45.666;18.994;2023-06-10T13:43:53;62.88;;;58.92;;
55025;SDS011;40925;45.666;18.994;2023-06-10T13:46:20;61.47;;;57.55;;
55025;SDS011;40925;45.666;18.994;2023-06-10T13:48:46;58.17;;;54.58;;
55025;SDS011;40925;45.666;18.994;2023-06-10T13:51:12;81.05;;;75.85;;
55025;SDS011;40925;45.666;18.994;2023-06-10T13:53:38;70.18;;;65.60;;
55025;SDS011;40925;45.666;18.994;2023-06-10T13:56:04;54.40;;;51.00;;
55025;SDS011;40925;45.666;18.994;2023-06-10T13:58:30;96.97;;;90.63;;
55025;SDS011;40925;45.666;18.994;2023-06-10T14:00:56;57.42;;;53.75;;
55025;SDS011;40925;45.666;18.994;2023-06-10T14:03:23;19.17;;;17.92;;
55025;SDS011;40925;45.666;18.994;2023-06-10T14:05:50;10.27;;;9.48;;
55025;SDS011;40925;45.666;18.994;2023-06-10T14:08:16;12.82;;;11.68;;
55025;SDS011;40925;45.666;18.994;2023-06-10T14:10:42;10.18;;;9.35;;
55025;SDS011;40925;45.666;18.994;2023-06-10T14:13:08;19.67;;;18.30;;
55025;SDS011;40925;45.666;18.994;2023-06-10T14:15:34;10.95;;;10.18;;
55025;SDS011;40925;45.666;18.994;2023-06-10T14:18:00;11.60;;;10.68;;
55025;SDS011;40925;45.666;18.994;2023-06-10T14:20:26;13.65;;;12.73;;
55025;SDS011;40925;45.666;18.994;2023-06-10T14:22:56;36.38;;;33.92;;
55025;SDS011;40925;45.666;18.994;2023-06-10T14:25:22;15.95;;;14.90;;
55025;SDS011;40925;45.666;18.994;2023-06-10T14:27:47;93.55;;;87.63;;
55025;SDS011;40925;45.666;18.994;2023-06-10T14:30:13;94.25;;;88.32;;
55025;SDS011;40925;45.666;18.994;2023-06-10T14:32:40;122.60;;;114.90;;
55025;SDS011;40925;45.666;18.994;2023-06-10T14:35:05;78.10;;;73.13;;
55025;SDS011;40925;45.666;18.994;2023-06-10T14:37:32;53.90;;;50.58;;